sensor_id;sensor_type;location;lat;lon;timestamp;P1;durP1;ratioP1;P2;durP2;ratioP2
11522;SDS011;70090;43.208;27.904;2024-02-14T00:00:02;15.33;;;13.60;;
11522;SDS011;70090;43.208;27.904;2024-02-14T00:02:30;16.67;;;13.90;;
11522;SDS011;70090;43.208;27.904;2024-02-14T00:04:57;17.20;;;13.70;;
11522;SDS011;70090;43.208;27.904;2024-02-14T00:07:24;14.37;;;12.37;;
11522;SDS011;70090;43.208;27.904;2024-02-14T00:09:53;15.03;;;12.87;;
11522;SDS011;70090;43.208;27.904;2024-02-14T00:12:20;15.57;;;14.03;;
11522;SDS011;70090;43.208;27.904;2024-02-14T00:14:49;19.57;;;15.73;;
11522;SDS011;70090;43.208;27.904;2024-02-14T00:17:16;16.63;;;14.33;;
11522;SDS011;70090;43.208;27.904;2024-02-14T00:19:43;16.67;;;14.13;;
11522;SDS011;70090;43.208;27.904;2024-02-14T00:22:10;14.80;;;12.33;;
11522;SDS011;70090;43.208;27.904;2024-02-14T00:24:37;14.23;;;12.73;;
11522;SDS011;70090;43.208;27.904;2024-02-14T00:27:06;24.23;;;18.77;;
11522;SDS011;70090;43.208;27.904;2024-02-14T00:29:33;20.70;;;18.30;;
11522;SDS011;70090;43.208;27.904;2024-02-14T00:32:00;15.27;;;13.10;;
11522;SDS011;70090;43.208;27.904;2024-02-14T00:34:27;11.43;;;10.00;;
11522;SDS011;70090;43.208;27.904;2024-02-14T00:36:54;11.30;;;9.40;;
11522;SDS011;70090;43.208;27.904;2024-02-14T00:39:21;12.97;;;10.03;;
11522;SDS011;70090;43.208;27.904;2024-02-14T00:41:48;11.43;;;10.00;;
11522;SDS011;70090;43.208;27.904;2024-02-14T00:44:19;11.00;;;9.80;;
11522;SDS011;70090;43.208;27.904;2024-02-14T00:46:46;11.37;;;10.17;;
11522;SDS011;70090;43.208;27.904;2024-02-14T00:49:13;12.03;;;10.00;;
11522;SDS011;70090;43.208;27.904;2024-02-14T00:51:40;10.63;;;9.53;;
11522;SDS011;70090;43.208;27.904;2024-02-14T00:54:07;11.33;;;9.87;;
11522;SDS011;70090;43.208;27.904;2024-02-14T00:56:34;11.30;;;10.10;;
11522;SDS011;70090;43.208;27.904;2024-02-14T00:59:01;12.63;;;10.97;;
11522;SDS011;70090;43.208;27.904;2024-02-14T01:01:30;11.97;;;10.67;;
11522;SDS011;70090;43.208;27.904;2024-02-14T01:03:57;13.80;;;10.40;;
11522;SDS011;70090;43.208;27.904;2024-02-14T01:06:24;11.77;;;10.33;;
11522;SDS011;70090;43.208;27.904;2024-02-14T01:08:51;11.50;;;10.30;;
11522;SDS011;70090;43.208;27.904;2024-02-14T01:11:18;11.77;;;10.27;;
11522;SDS011;70090;43.208;27.904;2024-02-14T01:13:45;11.90;;;10.43;;
11522;SDS011;70090;43.208;27.904;2024-02-14T01:16:12;14.43;;;11.20;;
11522;SDS011;70090;43.208;27.904;2024-02-14T01:18:41;11.50;;;10.27;;
11522;SDS011;70090;43.208;27.904;2024-02-14T01:21:08;12.37;;;10.70;;
11522;SDS011;70090;43.208;27.904;2024-02-14T01:23:35;10.90;;;9.80;;
11522;SDS011;70090;43.208;27.904;2024-02-14T01:26:02;11.50;;;9.90;;
11522;SDS011;70090;43.208;27.904;2024-02-14T01:28:29;11.63;;;10.40;;
11522;SDS011;70090;43.208;27.904;2024-02-14T01:30:56;12.60;;;10.53;;
11522;SDS011;70090;43.208;27.904;2024-02-14T01:33:23;12.43;;;9.67;;
11522;SDS011;70090;43.208;27.904;2024-02-14T01:35:51;11.63;;;10.30;;
11522;SDS011;70090;43.208;27.904;2024-02-14T01:38:18;11.03;;;9.93;;
11522;SDS011;70090;43.208;27.904;2024-02-14T01:40:46;13.13;;;10.17;;
11522;SDS011;70090;43.208;27.904;2024-02-14T01:43:14;11.93;;;10.43;;
11522;SDS011;70090;43.208;27.904;2024-02-14T01:48:31;13.10;;;9.77;;
11522;SDS011;70090;43.208;27.904;2024-02-14T01:51:00;10.47;;;9.33;;
11522;SDS011;70090;43.208;27.904;2024-02-14T01:53:29;13.07;;;9.63;;
11522;SDS011;70090;43.208;27.904;2024-02-14T01:55:57;10.93;;;9.83;;
11522;SDS011;70090;43.208;27.904;2024-02-14T01:58:26;11.27;;;9.60;;
11522;SDS011;70090;43.208;27.904;2024-02-14T02:00:53;10.10;;;9.10;;
11522;SDS011;70090;43.208;27.904;2024-02-14T02:03:22;10.00;;;8.90;;
11522;SDS011;70090;43.208;27.904;2024-02-14T02:05:50;10.77;;;9.67;;
11522;SDS011;70090;43.208;27.904;2024-02-14T02:08:19;11.30;;;9.23;;
11522;SDS011;70090;43.208;27.904;2024-02-14T02:10:46;10.53;;;9.37;;
11522;SDS011;70090;43.208;27.904;2024-02-14T02:13:13;10.57;;;9.47;;
11522;SDS011;70090;43.208;27.904;2024-02-14T02:15:41;10.40;;;9.30;;
11522;SDS011;70090;43.208;27.904;2024-02-14T02:18:09;11.10;;;10.00;;
11522;SDS011;70090;43.208;27.904;2024-02-14T02:20:36;10.53;;;9.10;;
11522;SDS011;70090;43.208;27.904;2024-02-14T02:23:05;10.63;;;9.43;;
11522;SDS011;70090;43.208;27.904;2024-02-14T02:25:34;11.00;;;9.80;;
11522;SDS011;70090;43.208;27.904;2024-02-14T02:28:01;11.93;;;10.57;;
11522;SDS011;70090;43.208;27.904;2024-02-14T02:30:28;11.87;;;10.33;;
11522;SDS011;70090;43.208;27.904;2024-02-14T02:32:55;10.87;;;9.77;;
11522;SDS011;70090;43.208;27.904;2024-02-14T02:35:23;10.60;;;9.50;;
11522;SDS011;70090;43.208;27.904;2024-02-14T02:37:51;10.83;;;9.77;;
11522;SDS011;70090;43.208;27.904;2024-02-14T02:40:20;10.73;;;8.43;;
11522;SDS011;70090;43.208;27.904;2024-02-14T02:42:47;10.40;;;8.10;;
11522;SDS011;70090;43.208;27.904;2024-02-14T02:45:15;8.70;;;7.93;;
11522;SDS011;70090;43.208;27.904;2024-02-14T02:47:42;8.67;;;7.87;;
11522;SDS011;70090;43.208;27.904;2024-02-14T02:50:09;8.43;;;7.53;;
11522;SDS011;70090;43.208;27.904;2024-02-14T02:52:36;9.23;;;8.33;;
11522;SDS011;70090;43.208;27.904;2024-02-14T02:55:04;9.07;;;8.23;;
11522;SDS011;70090;43.208;27.904;2024-02-14T02:57:33;8.97;;;8.03;;
11522;SDS011;70090;43.208;27.904;2024-02-14T03:00:02;8.43;;;7.63;;
11522;SDS011;70090;43.208;27.904;2024-02-14T03:02:30;9.17;;;7.63;;
11522;SDS011;70090;43.208;27.904;2024-02-14T03:04:58;8.20;;;7.40;;
11522;SDS011;70090;43.208;27.904;2024-02-14T03:07:25;8.17;;;7.47;;
11522;SDS011;70090;43.208;27.904;2024-02-14T03:09:52;8.00;;;7.30;;
11522;SDS011;70090;43.208;27.904;2024-02-14T03:12:19;7.43;;;6.73;;
11522;SDS011;70090;43.208;27.904;2024-02-14T03:14:49;7.33;;;6.47;;
11522;SDS011;70090;43.208;27.904;2024-02-14T03:17:16;7.20;;;6.50;;
11522;SDS011;70090;43.208;27.904;2024-02-14T03:19:43;6.77;;;6.17;;
11522;SDS011;70090;43.208;27.904;2024-02-14T03:22:10;6.70;;;6.00;;
11522;SDS011;70090;43.208;27.904;2024-02-14T03:24:37;6.53;;;5.90;;
11522;SDS011;70090;43.208;27.904;2024-02-14T03:27:04;6.10;;;5.50;;
11522;SDS011;70090;43.208;27.904;2024-02-14T03:29:31;6.63;;;5.93;;
11522;SDS011;70090;43.208;27.904;2024-02-14T03:32:01;6.10;;;5.50;;
11522;SDS011;70090;43.208;27.904;2024-02-14T03:34:29;6.33;;;5.70;;
11522;SDS011;70090;43.208;27.904;2024-02-14T03:36:59;6.13;;;5.60;;
11522;SDS011;70090;43.208;27.904;2024-02-14T03:39:27;5.60;;;5.10;;
11522;SDS011;70090;43.208;27.904;2024-02-14T03:41:55;6.00;;;5.40;;
11522;SDS011;70090;43.208;27.904;2024-02-14T03:44:22;6.17;;;5.30;;
11522;SDS011;70090;43.208;27.904;2024-02-14T03:46:49;6.07;;;5.43;;
11522;SDS011;70090;43.208;27.904;2024-02-14T03:49:18;5.70;;;5.20;;
11522;SDS011;70090;43.208;27.904;2024-02-14T03:51:45;5.90;;;5.37;;
11522;SDS011;70090;43.208;27.904;2024-02-14T03:54:14;5.80;;;5.20;;
11522;SDS011;70090;43.208;27.904;2024-02-14T03:56:41;6.10;;;5.50;;
11522;SDS011;70090;43.208;27.904;2024-02-14T03:59:08;6.07;;;5.03;;
11522;SDS011;70090;43.208;27.904;2024-02-14T04:01:35;5.90;;;5.30;;
11522;SDS011;70090;43.208;27.904;2024-02-14T04:04:02;6.00;;;5.40;;
11522;SDS011;70090;43.208;27.904;2024-02-14T04:06:31;5.93;;;5.33;;
11522;SDS011;70090;43.208;27.904;2024-02-14T04:08:58;6.40;;;5.80;;
11522;SDS011;70090;43.208;27.904;2024-02-14T04:11:26;6.20;;;5.60;;
11522;SDS011;70090;43.208;27.904;2024-02-14T04:13:53;5.90;;;5.30;;
11522;SDS011;70090;43.208;27.904;2024-02-14T04:16:20;6.13;;;5.53;;
11522;SDS011;70090;43.208;27.904;2024-02-14T04:18:47;6.27;;;5.47;;
11522;SDS011;70090;43.208;27.904;2024-02-14T04:21:14;6.20;;;5.50;;
11522;SDS011;70090;43.208;27.904;2024-02-14T04:23:43;6.20;;;5.60;;
11522;SDS011;70090;43.208;27.904;2024-02-14T04:26:10;6.43;;;5.83;;
11522;SDS011;70090;43.208;27.904;2024-02-14T04:28:44;7.50;;;5.63;;
11522;SDS011;70090;43.208;27.904;2024-02-14T04:31:11;6.80;;;6.10;;
11522;SDS011;70090;43.208;27.904;2024-02-14T04:33:38;6.87;;;5.90;;
11522;SDS011;70090;43.208;27.904;2024-02-14T04:36:05;6.10;;;5.50;;
11522;SDS011;70090;43.208;27.904;2024-02-14T04:38:33;7.80;;;7.00;;
11522;SDS011;70090;43.208;27.904;2024-02-14T04:41:01;10.77;;;5.70;;
11522;SDS011;70090;43.208;27.904;2024-02-14T04:43:28;5.80;;;5.13;;
11522;SDS011;70090;43.208;27.904;2024-02-14T04:45:55;6.50;;;5.67;;
11522;SDS011;70090;43.208;27.904;2024-02-14T04:48:22;5.57;;;4.90;;
11522;SDS011;70090;43.208;27.904;2024-02-14T04:50:51;7.37;;;5.80;;
11522;SDS011;70090;43.208;27.904;2024-02-14T04:53:18;6.07;;;4.97;;
11522;SDS011;70090;43.208;27.904;2024-02-14T04:55:46;5.97;;;5.00;;
11522;SDS011;70090;43.208;27.904;2024-02-14T04:58:14;5.53;;;5.00;;
11522;SDS011;70090;43.208;27.904;2024-02-14T05:00:41;5.67;;;5.00;;
11522;SDS011;70090;43.208;27.904;2024-02-14T05:03:08;7.07;;;5.20;;
11522;SDS011;70090;43.208;27.904;2024-02-14T05:05:35;5.37;;;4.73;;
11522;SDS011;70090;43.208;27.904;2024-02-14T05:08:03;5.30;;;4.80;;
11522;SDS011;70090;43.208;27.904;2024-02-14T05:10:31;5.57;;;4.97;;
11522;SDS011;70090;43.208;27.904;2024-02-14T05:12:58;6.57;;;5.10;;
11522;SDS011;70090;43.208;27.904;2024-02-14T05:15:27;5.50;;;5.00;;
11522;SDS011;70090;43.208;27.904;2024-02-14T05:17:54;6.67;;;4.70;;
11522;SDS011;70090;43.208;27.904;2024-02-14T05:20:22;5.37;;;4.80;;
11522;SDS011;70090;43.208;27.904;2024-02-14T05:22:49;5.97;;;4.70;;
11522;SDS011;70090;43.208;27.904;2024-02-14T05:25:16;5.37;;;4.87;;
11522;SDS011;70090;43.208;27.904;2024-02-14T05:27:43;6.57;;;4.87;;
11522;SDS011;70090;43.208;27.904;2024-02-14T05:30:12;6.27;;;5.03;;
11522;SDS011;70090;43.208;27.904;2024-02-14T05:32:41;4.70;;;4.30;;
11522;SDS011;70090;43.208;27.904;2024-02-14T05:35:08;4.67;;;3.97;;
11522;SDS011;70090;43.208;27.904;2024-02-14T05:37:35;4.60;;;4.03;;
11522;SDS011;70090;43.208;27.904;2024-02-14T05:40:03;8.67;;;5.33;;
11522;SDS011;70090;43.208;27.904;2024-02-14T05:42:32;5.73;;;5.13;;
11522;SDS011;70090;43.208;27.904;2024-02-14T05:44:59;7.97;;;5.80;;
11522;SDS011;70090;43.208;27.904;2024-02-14T05:47:29;6.13;;;5.53;;
11522;SDS011;70090;43.208;27.904;2024-02-14T05:49:58;5.90;;;5.30;;
11522;SDS011;70090;43.208;27.904;2024-02-14T05:52:25;8.23;;;6.20;;
11522;SDS011;70090;43.208;27.904;2024-02-14T05:54:52;6.23;;;5.63;;
11522;SDS011;70090;43.208;27.904;2024-02-14T05:57:19;6.50;;;5.90;;
11522;SDS011;70090;43.208;27.904;2024-02-14T05:59:46;8.17;;;6.37;;
11522;SDS011;70090;43.208;27.904;2024-02-14T06:02:13;7.17;;;6.20;;
11522;SDS011;70090;43.208;27.904;2024-02-14T06:04:40;10.17;;;6.87;;
11522;SDS011;70090;43.208;27.904;2024-02-14T06:07:09;9.07;;;7.17;;
11522;SDS011;70090;43.208;27.904;2024-02-14T06:09:37;8.17;;;6.90;;
11522;SDS011;70090;43.208;27.904;2024-02-14T06:12:04;7.53;;;5.77;;
11522;SDS011;70090;43.208;27.904;2024-02-14T06:14:31;6.27;;;5.67;;
11522;SDS011;70090;43.208;27.904;2024-02-14T06:17:00;9.60;;;7.50;;
11522;SDS011;70090;43.208;27.904;2024-02-14T06:19:27;9.33;;;6.20;;
11522;SDS011;70090;43.208;27.904;2024-02-14T06:21:55;8.50;;;7.10;;
11522;SDS011;70090;43.208;27.904;2024-02-14T06:24:24;10.67;;;7.17;;
11522;SDS011;70090;43.208;27.904;2024-02-14T06:26:51;11.47;;;7.73;;
11522;SDS011;70090;43.208;27.904;2024-02-14T06:29:18;9.13;;;7.73;;
11522;SDS011;70090;43.208;27.904;2024-02-14T06:31:45;10.20;;;7.40;;
11522;SDS011;70090;43.208;27.904;2024-02-14T06:34:12;10.43;;;7.50;;
11522;SDS011;70090;43.208;27.904;2024-02-14T06:36:39;8.87;;;7.30;;
11522;SDS011;70090;43.208;27.904;2024-02-14T06:39:06;9.87;;;7.57;;
11522;SDS011;70090;43.208;27.904;2024-02-14T06:41:35;8.57;;;7.30;;
11522;SDS011;70090;43.208;27.904;2024-02-14T06:44:02;8.47;;;7.10;;
11522;SDS011;70090;43.208;27.904;2024-02-14T06:46:30;7.60;;;6.70;;
11522;SDS011;70090;43.208;27.904;2024-02-14T06:48:57;9.00;;;7.43;;
11522;SDS011;70090;43.208;27.904;2024-02-14T06:51:24;9.37;;;8.20;;
11522;SDS011;70090;43.208;27.904;2024-02-14T06:53:51;11.30;;;9.53;;
11522;SDS011;70090;43.208;27.904;2024-02-14T06:56:18;9.17;;;7.23;;
11522;SDS011;70090;43.208;27.904;2024-02-14T06:58:46;12.77;;;7.90;;
11522;SDS011;70090;43.208;27.904;2024-02-14T07:01:17;9.47;;;8.20;;
11522;SDS011;70090;43.208;27.904;2024-02-14T07:03:48;10.60;;;7.80;;
11522;SDS011;70090;43.208;27.904;2024-02-14T07:06:16;14.33;;;7.87;;
11522;SDS011;70090;43.208;27.904;2024-02-14T07:08:43;8.07;;;7.33;;
11522;SDS011;70090;43.208;27.904;2024-02-14T07:11:10;10.03;;;7.33;;
11522;SDS011;70090;43.208;27.904;2024-02-14T07:13:37;10.00;;;7.50;;
11522;SDS011;70090;43.208;27.904;2024-02-14T07:16:06;11.50;;;8.00;;
11522;SDS011;70090;43.208;27.904;2024-02-14T07:18:33;9.60;;;7.77;;
11522;SDS011;70090;43.208;27.904;2024-02-14T07:21:01;8.23;;;6.57;;
11522;SDS011;70090;43.208;27.904;2024-02-14T07:23:30;8.83;;;7.07;;
11522;SDS011;70090;43.208;27.904;2024-02-14T07:25:57;8.13;;;6.67;;
11522;SDS011;70090;43.208;27.904;2024-02-14T07:28:26;8.07;;;5.70;;
11522;SDS011;70090;43.208;27.904;2024-02-14T07:30:53;5.90;;;5.30;;
11522;SDS011;70090;43.208;27.904;2024-02-14T07:33:21;8.97;;;6.47;;
11522;SDS011;70090;43.208;27.904;2024-02-14T07:35:50;9.27;;;6.03;;
11522;SDS011;70090;43.208;27.904;2024-02-14T07:38:17;5.80;;;5.10;;
11522;SDS011;70090;43.208;27.904;2024-02-14T07:40:44;7.27;;;5.50;;
11522;SDS011;70090;43.208;27.904;2024-02-14T07:43:11;7.73;;;6.37;;
11522;SDS011;70090;43.208;27.904;2024-02-14T07:45:38;7.43;;;5.50;;
11522;SDS011;70090;43.208;27.904;2024-02-14T07:48:05;8.07;;;6.93;;
11522;SDS011;70090;43.208;27.904;2024-02-14T07:50:34;9.60;;;7.57;;
11522;SDS011;70090;43.208;27.904;2024-02-14T07:53:02;7.57;;;5.53;;
11522;SDS011;70090;43.208;27.904;2024-02-14T07:55:29;8.97;;;6.80;;
11522;SDS011;70090;43.208;27.904;2024-02-14T07:57:56;9.83;;;6.00;;
11522;SDS011;70090;43.208;27.904;2024-02-14T08:00:24;10.20;;;7.00;;
11522;SDS011;70090;43.208;27.904;2024-02-14T08:02:51;6.90;;;6.20;;
11522;SDS011;70090;43.208;27.904;2024-02-14T08:05:19;8.43;;;6.83;;
11522;SDS011;70090;43.208;27.904;2024-02-14T08:07:47;13.33;;;7.87;;
11522;SDS011;70090;43.208;27.904;2024-02-14T08:10:14;7.83;;;7.00;;
11522;SDS011;70090;43.208;27.904;2024-02-14T08:12:41;11.47;;;7.67;;
11522;SDS011;70090;43.208;27.904;2024-02-14T08:15:09;10.30;;;6.17;;
11522;SDS011;70090;43.208;27.904;2024-02-14T08:17:36;8.67;;;6.63;;
11522;SDS011;70090;43.208;27.904;2024-02-14T08:20:04;10.57;;;6.70;;
11522;SDS011;70090;43.208;27.904;2024-02-14T08:22:32;10.23;;;6.07;;
11522;SDS011;70090;43.208;27.904;2024-02-14T08:25:00;5.83;;;4.20;;
11522;SDS011;70090;43.208;27.904;2024-02-14T08:27:28;6.07;;;4.90;;
11522;SDS011;70090;43.208;27.904;2024-02-14T08:29:56;8.03;;;5.43;;
11522;SDS011;70090;43.208;27.904;2024-02-14T08:32:23;8.97;;;6.10;;
11522;SDS011;70090;43.208;27.904;2024-02-14T08:34:50;6.53;;;5.00;;
11522;SDS011;70090;43.208;27.904;2024-02-14T08:37:17;6.23;;;4.43;;
11522;SDS011;70090;43.208;27.904;2024-02-14T08:39:46;5.00;;;4.50;;
11522;SDS011;70090;43.208;27.904;2024-02-14T08:42:14;10.10;;;5.20;;
11522;SDS011;70090;43.208;27.904;2024-02-14T08:44:41;5.87;;;4.43;;
11522;SDS011;70090;43.208;27.904;2024-02-14T08:47:08;7.53;;;4.30;;
11522;SDS011;70090;43.208;27.904;2024-02-14T08:49:35;4.87;;;4.17;;
11522;SDS011;70090;43.208;27.904;2024-02-14T08:52:03;8.03;;;4.50;;
11522;SDS011;70090;43.208;27.904;2024-02-14T08:54:31;5.63;;;4.00;;
11522;SDS011;70090;43.208;27.904;2024-02-14T08:56:58;5.83;;;4.30;;
11522;SDS011;70090;43.208;27.904;2024-02-14T08:59:27;10.17;;;5.40;;
11522;SDS011;70090;43.208;27.904;2024-02-14T09:01:54;4.90;;;3.40;;
11522;SDS011;70090;43.208;27.904;2024-02-14T09:04:21;6.30;;;4.60;;
11522;SDS011;70090;43.208;27.904;2024-02-14T09:06:48;5.83;;;3.60;;
11522;SDS011;70090;43.208;27.904;2024-02-14T09:09:15;6.73;;;3.23;;
11522;SDS011;70090;43.208;27.904;2024-02-14T09:11:44;4.47;;;3.50;;
11522;SDS011;70090;43.208;27.904;2024-02-14T09:14:11;7.53;;;4.43;;
11522;SDS011;70090;43.208;27.904;2024-02-14T09:16:39;6.00;;;4.00;;
11522;SDS011;70090;43.208;27.904;2024-02-14T09:19:06;7.03;;;4.07;;
11522;SDS011;70090;43.208;27.904;2024-02-14T09:21:35;7.80;;;4.53;;
11522;SDS011;70090;43.208;27.904;2024-02-14T09:24:02;5.00;;;4.50;;
11522;SDS011;70090;43.208;27.904;2024-02-14T09:26:29;6.17;;;4.60;;
11522;SDS011;70090;43.208;27.904;2024-02-14T09:28:57;5.00;;;4.50;;
11522;SDS011;70090;43.208;27.904;2024-02-14T09:31:24;4.30;;;3.67;;
11522;SDS011;70090;43.208;27.904;2024-02-14T09:33:53;4.73;;;4.20;;
11522;SDS011;70090;43.208;27.904;2024-02-14T09:36:22;5.97;;;4.30;;
11522;SDS011;70090;43.208;27.904;2024-02-14T09:38:49;5.57;;;3.70;;
11522;SDS011;70090;43.208;27.904;2024-02-14T09:41:20;3.93;;;3.00;;
11522;SDS011;70090;43.208;27.904;2024-02-14T09:43:52;3.47;;;3.13;;
11522;SDS011;70090;43.208;27.904;2024-02-14T09:46:19;5.20;;;3.33;;
11522;SDS011;70090;43.208;27.904;2024-02-14T09:48:49;7.07;;;4.40;;
11522;SDS011;70090;43.208;27.904;2024-02-14T09:51:20;4.80;;;3.90;;
11522;SDS011;70090;43.208;27.904;2024-02-14T09:53:48;6.43;;;4.00;;
11522;SDS011;70090;43.208;27.904;2024-02-14T09:56:18;6.07;;;3.80;;
11522;SDS011;70090;43.208;27.904;2024-02-14T09:58:49;3.47;;;2.87;;
11522;SDS011;70090;43.208;27.904;2024-02-14T10:01:21;5.03;;;3.80;;
11522;SDS011;70090;43.208;27.904;2024-02-14T10:03:49;6.17;;;3.90;;
11522;SDS011;70090;43.208;27.904;2024-02-14T10:06:17;5.97;;;4.70;;
11522;SDS011;70090;43.208;27.904;2024-02-14T10:08:46;5.00;;;3.83;;
11522;SDS011;70090;43.208;27.904;2024-02-14T10:11:13;3.67;;;3.20;;
11522;SDS011;70090;43.208;27.904;2024-02-14T10:13:44;3.80;;;3.13;;
11522;SDS011;70090;43.208;27.904;2024-02-14T10:16:12;4.07;;;3.53;;
11522;SDS011;70090;43.208;27.904;2024-02-14T10:18:39;6.97;;;4.40;;
11522;SDS011;70090;43.208;27.904;2024-02-14T10:21:08;4.33;;;3.47;;
11522;SDS011;70090;43.208;27.904;2024-02-14T10:23:42;5.10;;;3.77;;
11522;SDS011;70090;43.208;27.904;2024-02-14T10:26:11;6.57;;;4.77;;
11522;SDS011;70090;43.208;27.904;2024-02-14T10:28:40;3.73;;;3.27;;
11522;SDS011;70090;43.208;27.904;2024-02-14T10:31:09;3.40;;;3.07;;
11522;SDS011;70090;43.208;27.904;2024-02-14T10:33:38;5.17;;;3.73;;
11522;SDS011;70090;43.208;27.904;2024-02-14T10:36:06;6.63;;;3.63;;
11522;SDS011;70090;43.208;27.904;2024-02-14T10:38:34;4.17;;;3.10;;
11522;SDS011;70090;43.208;27.904;2024-02-14T10:41:01;7.40;;;4.03;;
11522;SDS011;70090;43.208;27.904;2024-02-14T10:43:30;6.20;;;3.87;;
11522;SDS011;70090;43.208;27.904;2024-02-14T10:45:59;4.50;;;3.47;;
11522;SDS011;70090;43.208;27.904;2024-02-14T10:48:29;4.27;;;3.50;;
11522;SDS011;70090;43.208;27.904;2024-02-14T10:51:00;5.23;;;3.60;;
11522;SDS011;70090;43.208;27.904;2024-02-14T10:53:31;5.33;;;4.20;;
11522;SDS011;70090;43.208;27.904;2024-02-14T10:56:00;5.13;;;4.53;;
11522;SDS011;70090;43.208;27.904;2024-02-14T10:58:28;7.77;;;4.70;;
11522;SDS011;70090;43.208;27.904;2024-02-14T11:00:59;4.10;;;3.10;;
11522;SDS011;70090;43.208;27.904;2024-02-14T11:03:27;6.23;;;4.30;;
11522;SDS011;70090;43.208;27.904;2024-02-14T11:05:55;5.67;;;4.00;;
11522;SDS011;70090;43.208;27.904;2024-02-14T11:08:28;6.53;;;4.17;;
11522;SDS011;70090;43.208;27.904;2024-02-14T11:10:59;5.87;;;4.30;;
11522;SDS011;70090;43.208;27.904;2024-02-14T11:13:26;4.43;;;3.67;;
11522;SDS011;70090;43.208;27.904;2024-02-14T11:15:59;5.57;;;4.00;;
11522;SDS011;70090;43.208;27.904;2024-02-14T11:18:27;4.17;;;2.97;;
11522;SDS011;70090;43.208;27.904;2024-02-14T11:20:55;4.43;;;2.80;;
11522;SDS011;70090;43.208;27.904;2024-02-14T11:23:23;3.97;;;3.20;;
11522;SDS011;70090;43.208;27.904;2024-02-14T11:25:58;3.30;;;2.27;;
11522;SDS011;70090;43.208;27.904;2024-02-14T11:28:26;4.37;;;3.00;;
11522;SDS011;70090;43.208;27.904;2024-02-14T11:31:00;5.30;;;3.20;;
11522;SDS011;70090;43.208;27.904;2024-02-14T11:33:29;9.03;;;4.37;;
11522;SDS011;70090;43.208;27.904;2024-02-14T11:35:56;5.93;;;3.87;;
11522;SDS011;70090;43.208;27.904;2024-02-14T11:38:24;4.57;;;3.47;;
11522;SDS011;70090;43.208;27.904;2024-02-14T11:40:53;6.60;;;4.40;;
11522;SDS011;70090;43.208;27.904;2024-02-14T11:43:22;6.97;;;3.37;;
11522;SDS011;70090;43.208;27.904;2024-02-14T11:45:49;9.23;;;3.87;;
11522;SDS011;70090;43.208;27.904;2024-02-14T11:48:19;4.17;;;3.43;;
11522;SDS011;70090;43.208;27.904;2024-02-14T11:50:48;6.30;;;3.03;;
11522;SDS011;70090;43.208;27.904;2024-02-14T11:53:17;4.83;;;3.40;;
11522;SDS011;70090;43.208;27.904;2024-02-14T11:55:45;6.53;;;4.20;;
11522;SDS011;70090;43.208;27.904;2024-02-14T11:58:13;7.00;;;3.87;;
11522;SDS011;70090;43.208;27.904;2024-02-14T12:00:41;5.13;;;3.30;;
11522;SDS011;70090;43.208;27.904;2024-02-14T12:03:10;3.20;;;2.77;;
11522;SDS011;70090;43.208;27.904;2024-02-14T12:05:40;4.10;;;3.13;;
11522;SDS011;70090;43.208;27.904;2024-02-14T12:08:09;4.67;;;2.70;;
11522;SDS011;70090;43.208;27.904;2024-02-14T12:10:36;3.83;;;2.87;;
11522;SDS011;70090;43.208;27.904;2024-02-14T12:13:07;3.40;;;2.30;;
11522;SDS011;70090;43.208;27.904;2024-02-14T12:15:39;3.47;;;2.40;;
11522;SDS011;70090;43.208;27.904;2024-02-14T12:18:07;4.83;;;2.97;;
11522;SDS011;70090;43.208;27.904;2024-02-14T12:20:35;5.93;;;2.90;;
11522;SDS011;70090;43.208;27.904;2024-02-14T12:23:04;4.60;;;2.83;;
11522;SDS011;70090;43.208;27.904;2024-02-14T12:25:32;7.07;;;3.70;;
11522;SDS011;70090;43.208;27.904;2024-02-14T12:27:59;3.60;;;3.03;;
11522;SDS011;70090;43.208;27.904;2024-02-14T12:30:41;9.63;;;5.37;;
11522;SDS011;70090;43.208;27.904;2024-02-14T12:33:10;4.53;;;2.83;;
11522;SDS011;70090;43.208;27.904;2024-02-14T12:35:40;4.27;;;2.90;;
11522;SDS011;70090;43.208;27.904;2024-02-14T12:38:10;3.37;;;2.80;;
11522;SDS011;70090;43.208;27.904;2024-02-14T12:40:38;3.37;;;2.50;;
11522;SDS011;70090;43.208;27.904;2024-02-14T12:43:06;3.90;;;3.43;;
11522;SDS011;70090;43.208;27.904;2024-02-14T12:45:34;4.07;;;3.13;;
11522;SDS011;70090;43.208;27.904;2024-02-14T12:48:01;5.77;;;3.30;;
11522;SDS011;70090;43.208;27.904;2024-02-14T12:50:29;3.60;;;3.17;;
11522;SDS011;70090;43.208;27.904;2024-02-14T12:52:57;6.67;;;3.00;;
11522;SDS011;70090;43.208;27.904;2024-02-14T12:55:25;4.93;;;3.40;;
11522;SDS011;70090;43.208;27.904;2024-02-14T12:57:53;4.30;;;3.40;;
11522;SDS011;70090;43.208;27.904;2024-02-14T13:00:21;5.60;;;4.00;;
11522;SDS011;70090;43.208;27.904;2024-02-14T13:02:48;6.50;;;3.60;;
11522;SDS011;70090;43.208;27.904;2024-02-14T13:05:15;6.13;;;3.70;;
11522;SDS011;70090;43.208;27.904;2024-02-14T13:07:42;6.60;;;4.27;;
11522;SDS011;70090;43.208;27.904;2024-02-14T13:10:10;10.33;;;4.17;;
11522;SDS011;70090;43.208;27.904;2024-02-14T13:12:39;3.77;;;3.00;;
11522;SDS011;70090;43.208;27.904;2024-02-14T13:15:06;4.90;;;3.40;;
11522;SDS011;70090;43.208;27.904;2024-02-14T13:17:34;4.57;;;3.73;;
11522;SDS011;70090;43.208;27.904;2024-02-14T13:20:01;6.97;;;5.10;;
11522;SDS011;70090;43.208;27.904;2024-02-14T13:22:28;7.17;;;4.77;;
11522;SDS011;70090;43.208;27.904;2024-02-14T13:24:55;7.37;;;4.00;;
11522;SDS011;70090;43.208;27.904;2024-02-14T13:27:22;5.40;;;3.97;;
11522;SDS011;70090;43.208;27.904;2024-02-14T13:29:50;9.40;;;5.03;;
11522;SDS011;70090;43.208;27.904;2024-02-14T13:32:17;7.47;;;4.30;;
11522;SDS011;70090;43.208;27.904;2024-02-14T13:34:44;6.00;;;3.97;;
11522;SDS011;70090;43.208;27.904;2024-02-14T13:37:13;3.33;;;3.03;;
11522;SDS011;70090;43.208;27.904;2024-02-14T13:39:41;4.53;;;3.70;;
11522;SDS011;70090;43.208;27.904;2024-02-14T13:42:09;7.80;;;4.40;;
11522;SDS011;70090;43.208;27.904;2024-02-14T13:44:36;4.50;;;4.10;;
11522;SDS011;70090;43.208;27.904;2024-02-14T13:47:04;5.27;;;4.30;;
11522;SDS011;70090;43.208;27.904;2024-02-14T13:49:31;7.23;;;4.53;;
11522;SDS011;70090;43.208;27.904;2024-02-14T13:51:58;7.30;;;4.90;;
11522;SDS011;70090;43.208;27.904;2024-02-14T13:54:25;4.80;;;3.73;;
11522;SDS011;70090;43.208;27.904;2024-02-14T13:56:52;4.70;;;4.03;;
11522;SDS011;70090;43.208;27.904;2024-02-14T13:59:20;7.63;;;4.37;;
11522;SDS011;70090;43.208;27.904;2024-02-14T14:01:47;5.27;;;4.33;;
11522;SDS011;70090;43.208;27.904;2024-02-14T14:04:16;8.07;;;5.30;;
11522;SDS011;70090;43.208;27.904;2024-02-14T14:06:43;6.63;;;4.40;;
11522;SDS011;70090;43.208;27.904;2024-02-14T14:09:12;7.43;;;4.57;;
11522;SDS011;70090;43.208;27.904;2024-02-14T14:11:39;4.37;;;3.80;;
11522;SDS011;70090;43.208;27.904;2024-02-14T14:14:06;3.80;;;3.40;;
11522;SDS011;70090;43.208;27.904;2024-02-14T14:16:36;4.37;;;3.67;;
11522;SDS011;70090;43.208;27.904;2024-02-14T14:19:03;5.30;;;4.10;;
11522;SDS011;70090;43.208;27.904;2024-02-14T14:21:32;4.93;;;4.43;;
11522;SDS011;70090;43.208;27.904;2024-02-14T14:23:59;5.27;;;4.10;;
11522;SDS011;70090;43.208;27.904;2024-02-14T14:26:26;5.87;;;4.33;;
11522;SDS011;70090;43.208;27.904;2024-02-14T14:28:53;9.73;;;6.13;;
11522;SDS011;70090;43.208;27.904;2024-02-14T14:31:20;5.90;;;4.60;;
11522;SDS011;70090;43.208;27.904;2024-02-14T14:33:47;9.07;;;5.03;;
11522;SDS011;70090;43.208;27.904;2024-02-14T14:36:14;5.40;;;4.47;;